createdAt,value
2019-06-08T00:00:24.661Z,20.23
2019-06-08T00:02:57.188Z,20.23
2019-06-08T00:05:29.507Z,20.21
2019-06-08T00:08:01.892Z,20.13
2019-06-08T00:10:33.989Z,20.04
2019-06-08T00:13:06.581Z,20.03
2019-06-08T00:15:38.620Z,20.06
2019-06-08T00:18:11.080Z,20.02
2019-06-08T00:20:43.260Z,20.00
2019-06-08T00:23:15.770Z,20.04
2019-06-08T00:25:48.095Z,20.08
2019-06-08T00:28:20.553Z,20.06
2019-06-08T00:30:52.921Z,20.05
2019-06-08T00:33:25.482Z,20.13
2019-06-08T00:35:58.870Z,20.12
2019-06-08T00:38:32.492Z,20.19
2019-06-08T00:41:05.165Z,20.12
2019-06-08T00:43:37.540Z,20.12
2019-06-08T00:46:09.789Z,20.05
2019-06-08T00:48:42.148Z,19.95
2019-06-08T00:51:14.487Z,19.85
2019-06-08T00:53:46.803Z,19.78
2019-06-08T00:56:19.487Z,19.70
2019-06-08T00:58:51.905Z,19.65
2019-06-08T01:01:26.359Z,19.64
2019-06-08T01:03:58.577Z,19.64
2019-06-08T01:06:30.886Z,19.64
2019-06-08T01:09:03.608Z,19.66
2019-06-08T01:11:36.651Z,19.65
2019-06-08T01:14:09.196Z,19.58
2019-06-08T01:16:41.551Z,19.61
2019-06-08T01:19:13.926Z,19.64
2019-06-08T01:21:46.375Z,19.64
2019-06-08T01:24:19.657Z,19.57
2019-06-08T01:26:52.085Z,19.61
2019-06-08T01:29:24.552Z,19.72
2019-06-08T01:31:57.066Z,19.73
2019-06-08T01:34:30.891Z,19.67
2019-06-08T01:37:03.473Z,19.65
2019-06-08T01:39:39.647Z,19.60
2019-06-08T01:42:18.105Z,19.48
2019-06-08T01:44:51.503Z,19.39
2019-06-08T01:47:24.625Z,19.30
2019-06-08T01:49:57.070Z,19.15
2019-06-08T01:52:30.851Z,19.08
2019-06-08T01:55:03.188Z,19.02
2019-06-08T01:57:35.911Z,18.93
2019-06-08T02:02:43.776Z,18.91
2019-06-08T02:05:16.529Z,18.89
2019-06-08T02:07:48.817Z,18.90
2019-06-08T02:10:22.212Z,18.98
2019-06-08T02:12:54.800Z,19.00
2019-06-08T02:15:27.264Z,19.00
2019-06-08T02:17:59.513Z,19.03
2019-06-08T02:20:33.004Z,19.08
2019-06-08T02:23:05.625Z,19.09
2019-06-08T02:25:37.812Z,19.09
2019-06-08T02:28:10.202Z,19.04
2019-06-08T02:30:42.789Z,18.98
2019-06-08T02:33:15.286Z,18.93
2019-06-08T02:35:48.057Z,18.97
2019-06-08T02:38:20.776Z,19.57
2019-06-08T02:40:55.704Z,19.66
2019-06-08T02:43:29.005Z,19.59
2019-06-08T02:46:01.481Z,19.56
2019-06-08T02:48:35.624Z,19.58
2019-06-08T02:51:07.289Z,19.67
2019-06-08T02:53:41.430Z,19.69
2019-06-08T02:56:15.272Z,19.78
2019-06-08T02:58:49.716Z,19.89
2019-06-08T03:01:22.647Z,19.98
2019-06-08T03:03:56.389Z,20.07
2019-06-08T03:06:32.373Z,20.19
2019-06-08T03:09:05.873Z,20.28
2019-06-08T03:11:39.208Z,20.37
2019-06-08T03:14:12.467Z,20.46
2019-06-08T03:16:45.713Z,20.58
2019-06-08T03:19:22.404Z,20.72
2019-06-08T03:21:53.446Z,20.85
2019-06-08T03:24:26.995Z,20.94
2019-06-08T03:26:59.505Z,21.03
2019-06-08T03:29:34.946Z,21.12
2019-06-08T03:32:08.088Z,21.13
2019-06-08T03:34:51.153Z,21.26
2019-06-08T03:37:15.149Z,21.33
2019-06-08T03:39:47.676Z,21.41
2019-06-08T03:42:21.067Z,21.42
2019-06-08T03:44:53.447Z,21.36
2019-06-08T03:47:25.578Z,21.51
2019-06-08T03:49:58.813Z,21.53
2019-06-08T03:52:31.318Z,21.64
2019-06-08T03:55:04.296Z,21.67
2019-06-08T03:57:38.239Z,21.72
2019-06-08T04:00:13.351Z,22.00
2019-06-08T04:02:46.782Z,21.76
2019-06-08T04:05:19.019Z,21.55
2019-06-08T04:07:51.318Z,21.51
2019-06-08T04:10:23.894Z,21.57
2019-06-08T04:12:56.095Z,21.73
2019-06-08T04:15:29.487Z,21.75
2019-06-08T04:18:02.670Z,21.82
2019-06-08T04:20:34.970Z,22.05
2019-06-08T04:23:07.422Z,22.00
2019-06-08T04:25:41.011Z,21.91
2019-06-08T04:28:14.222Z,21.90
2019-06-08T04:30:49.834Z,22.10
2019-06-08T04:33:26.337Z,22.14
2019-06-08T04:35:59.022Z,22.24
2019-06-08T04:38:33.474Z,22.33
2019-06-08T04:41:05.624Z,22.51
2019-06-08T04:43:45.448Z,22.53
2019-06-08T04:46:18.716Z,22.31
2019-06-08T04:48:52.496Z,22.58
2019-06-08T04:51:24.772Z,22.69
2019-06-08T04:53:58.476Z,22.69
2019-06-08T04:56:32.014Z,22.68
2019-06-08T04:59:06.632Z,22.82
2019-06-08T05:01:40.821Z,22.67
2019-06-08T05:04:12.312Z,22.66
2019-06-08T05:06:45.257Z,22.65
2019-06-08T05:09:17.670Z,22.63
2019-06-08T05:11:50.047Z,22.77
2019-06-08T05:14:22.617Z,22.97
2019-06-08T05:16:54.541Z,23.13
2019-06-08T05:19:27.063Z,23.07
2019-06-08T05:22:00.486Z,23.38
2019-06-08T05:24:33.091Z,23.24
2019-06-08T05:27:06.277Z,23.33
2019-06-08T05:29:43.291Z,23.35
2019-06-08T05:32:16.081Z,23.47
2019-06-08T05:34:49.714Z,23.47
2019-06-08T05:37:21.795Z,23.55
2019-06-08T05:39:55.276Z,23.65
2019-06-08T05:42:28.426Z,24.19
2019-06-08T05:45:08.331Z,24.14
2019-06-08T05:47:41.794Z,24.17
2019-06-08T05:50:17.607Z,24.41
2019-06-08T05:52:50.307Z,24.54
2019-06-08T05:55:22.922Z,24.24
2019-06-08T05:57:56.728Z,24.35
2019-06-08T06:00:29.212Z,24.45
2019-06-08T06:03:01.734Z,24.79
2019-06-08T06:05:33.961Z,25.03
2019-06-08T06:08:18.433Z,25.00
2019-06-08T06:10:42.873Z,25.02
2019-06-08T06:13:15.404Z,25.16
2019-06-08T06:15:49.021Z,25.31
2019-06-08T06:18:22.220Z,25.30
2019-06-08T06:21:09.805Z,25.54
2019-06-08T06:23:28.382Z,25.49
2019-06-08T06:26:02.202Z,25.53
2019-06-08T06:28:34.499Z,25.59
2019-06-08T06:31:07.573Z,25.92
2019-06-08T06:33:39.920Z,25.92
2019-06-08T06:36:12.294Z,26.13
2019-06-08T06:38:45.833Z,26.05
2019-06-08T06:41:18.677Z,25.97
2019-06-08T06:43:51.930Z,25.92
2019-06-08T06:46:26.028Z,26.24
2019-06-08T06:48:58.259Z,26.52
2019-06-08T06:51:33.885Z,26.63
2019-06-08T06:54:05.481Z,26.90
2019-06-08T06:56:37.676Z,26.80
2019-06-08T06:59:09.806Z,26.82
2019-06-08T07:01:41.892Z,26.73
2019-06-08T07:04:14.013Z,26.69
2019-06-08T07:06:46.257Z,26.78
2019-06-08T07:09:18.540Z,26.68
2019-06-08T07:11:50.989Z,26.74
2019-06-08T07:14:23.224Z,26.90
2019-06-08T07:16:56.142Z,27.18
2019-06-08T07:19:28.740Z,27.14
2019-06-08T07:22:03.596Z,27.18
2019-06-08T07:24:37.267Z,27.09
2019-06-08T07:27:14.503Z,27.34
2019-06-08T07:29:56.282Z,27.37
2019-06-08T07:32:30.582Z,27.39
2019-06-08T07:35:08.935Z,27.50
2019-06-08T07:37:41.220Z,27.66
2019-06-08T07:40:14.308Z,27.83
2019-06-08T07:42:49.731Z,28.07
2019-06-08T07:45:25.143Z,27.85
2019-06-08T07:48:00.599Z,27.97
2019-06-08T07:50:35.989Z,28.00
2019-06-08T07:53:10.464Z,28.15
2019-06-08T07:55:45.379Z,28.22
2019-06-08T07:58:21.490Z,28.39
2019-06-08T08:00:59.745Z,28.52
2019-06-08T08:03:36.920Z,28.54
2019-06-08T08:06:09.276Z,28.44
2019-06-08T08:08:41.839Z,28.39
2019-06-08T08:11:14.058Z,28.55
2019-06-08T08:13:46.583Z,28.57
2019-06-08T08:16:18.878Z,28.57
2019-06-08T08:18:51.337Z,28.52
2019-06-08T08:21:26.366Z,28.65
2019-06-08T08:23:59.398Z,28.60
2019-06-08T08:26:34.044Z,28.76
2019-06-08T08:29:05.138Z,28.90
2019-06-08T08:31:39.458Z,28.85
2019-06-08T08:34:13.049Z,28.85
2019-06-08T08:36:48.158Z,29.08
2019-06-08T08:39:21.911Z,29.08
2019-06-08T08:41:56.864Z,28.79
2019-06-08T08:44:28.338Z,29.10
2019-06-08T08:47:02.814Z,29.23
2019-06-08T08:49:38.057Z,29.37
2019-06-08T08:52:11.649Z,29.11
2019-06-08T08:54:47.383Z,29.35
2019-06-08T08:57:18.237Z,29.37
2019-06-08T08:59:53.594Z,29.55
2019-06-08T09:02:24.985Z,29.73
2019-06-08T09:05:01.304Z,29.72
2019-06-08T09:07:31.435Z,29.50
2019-06-08T09:10:08.554Z,29.95
2019-06-08T09:12:42.696Z,29.95
2019-06-08T09:15:15.473Z,30.12
2019-06-08T09:17:48.278Z,29.99
2019-06-08T09:20:20.553Z,29.99
2019-06-08T09:23:01.919Z,29.70
2019-06-08T09:25:28.663Z,30.04
2019-06-08T09:28:04.409Z,30.28
2019-06-08T09:30:34.884Z,30.05
2019-06-08T09:33:08.151Z,30.37
2019-06-08T09:35:40.575Z,30.21
2019-06-08T09:38:14.254Z,30.06
2019-06-08T09:40:48.891Z,30.17
2019-06-08T09:43:21.014Z,30.26
2019-06-08T09:45:54.181Z,30.26
2019-06-08T09:48:28.824Z,30.35
2019-06-08T09:51:03.753Z,30.48
2019-06-08T09:53:41.072Z,30.68
2019-06-08T09:56:12.416Z,31.04
2019-06-08T09:58:51.144Z,31.02
2019-06-08T10:01:21.827Z,31.04
2019-06-08T10:03:54.351Z,30.88
2019-06-08T10:06:27.815Z,30.76
2019-06-08T10:09:00.744Z,31.27
2019-06-08T10:11:34.690Z,31.31
2019-06-08T10:14:12.385Z,31.44
2019-06-08T10:16:47.667Z,31.11
2019-06-08T10:19:19.036Z,30.96
2019-06-08T10:21:51.462Z,31.50
2019-06-08T10:24:23.517Z,31.88
2019-06-08T10:26:59.279Z,32.36
2019-06-08T10:29:31.491Z,32.77
2019-06-08T10:32:06.398Z,33.37
2019-06-08T10:34:39.396Z,33.90
2019-06-08T10:37:13.278Z,35.03
2019-06-08T10:39:47.727Z,35.05
2019-06-08T10:42:22.688Z,35.11
2019-06-08T10:45:02.324Z,35.20
2019-06-08T10:47:30.341Z,35.46
2019-06-08T10:50:08.972Z,35.59
2019-06-08T10:52:43.988Z,35.56
2019-06-08T10:55:17.991Z,36.70
2019-06-08T10:57:52.115Z,34.79
2019-06-08T11:00:28.210Z,33.45
2019-06-08T11:03:02.140Z,32.42
2019-06-08T11:05:34.115Z,31.61
2019-06-08T11:08:12.911Z,31.13
2019-06-08T11:10:41.605Z,31.12
2019-06-08T11:13:15.046Z,31.40
2019-06-08T11:15:48.905Z,31.90
2019-06-08T11:18:21.750Z,31.78
2019-06-08T11:20:57.999Z,31.27
2019-06-08T11:23:31.194Z,30.75
2019-06-08T11:26:11.137Z,30.87
2019-06-08T11:28:38.278Z,32.62
2019-06-08T11:31:15.798Z,33.71
2019-06-08T11:33:45.809Z,34.06
2019-06-08T11:36:19.315Z,35.70
2019-06-08T11:38:53.359Z,36.41
2019-06-08T11:41:27.702Z,36.57
2019-06-08T11:44:02.082Z,37.41
2019-06-08T11:46:38.370Z,38.21
2019-06-08T11:49:13.475Z,37.09
2019-06-08T11:51:47.687Z,37.21
2019-06-08T11:54:32.310Z,36.69
2019-06-08T11:56:57.380Z,36.93
2019-06-08T11:59:29.729Z,38.23
2019-06-08T12:02:03.439Z,38.11
2019-06-08T12:04:38.270Z,37.79
2019-06-08T12:07:12.250Z,39.17
2019-06-08T12:09:44.354Z,39.55
2019-06-08T12:12:18.646Z,38.89
2019-06-08T12:14:50.844Z,38.53
2019-06-08T12:17:23.112Z,38.71
2019-06-08T12:19:57.608Z,38.49
2019-06-08T12:22:29.104Z,38.33
2019-06-08T12:25:01.775Z,38.42
2019-06-08T12:27:37.283Z,38.43
2019-06-08T12:30:17.409Z,39.13
2019-06-08T12:32:43.295Z,39.00
2019-06-08T12:35:18.097Z,39.21
2019-06-08T12:37:51.525Z,38.40
2019-06-08T12:40:28.082Z,38.77
2019-06-08T12:42:59.760Z,39.24
2019-06-08T12:45:32.122Z,38.31
2019-06-08T12:48:04.603Z,38.77
2019-06-08T12:50:38.659Z,38.29
2019-06-08T12:53:15.940Z,38.11
2019-06-08T12:55:47.604Z,38.67
2019-06-08T12:58:21.946Z,38.12
2019-06-08T13:00:53.896Z,37.94
2019-06-08T13:03:29.892Z,39.15
2019-06-08T13:06:02.629Z,39.60
2019-06-08T13:08:34.916Z,38.66
2019-06-08T13:11:09.766Z,35.56
2019-06-08T13:13:43.127Z,34.01
2019-06-08T13:16:19.697Z,34.32
2019-06-08T13:18:49.752Z,35.71
2019-06-08T13:21:34.061Z,35.89
2019-06-08T13:23:58.197Z,35.56
2019-06-08T13:26:31.114Z,35.88
2019-06-08T13:29:04.168Z,36.62
2019-06-08T13:31:38.297Z,35.10
2019-06-08T13:34:14.176Z,34.89
2019-06-08T13:36:48.401Z,35.28
2019-06-08T13:39:22.726Z,35.37
2019-06-08T13:41:54.146Z,35.16
2019-06-08T13:44:27.810Z,34.84
2019-06-08T13:47:00.439Z,33.49
2019-06-08T13:49:32.625Z,33.31
2019-06-08T13:52:07.900Z,33.54
2019-06-08T13:54:41.117Z,35.09
2019-06-08T13:57:13.544Z,37.15
2019-06-08T13:59:45.436Z,38.39
2019-06-08T14:02:21.016Z,38.71
2019-06-08T14:04:51.772Z,38.04
2019-06-08T14:07:34.427Z,35.35
2019-06-08T14:10:04.501Z,34.31
2019-06-08T14:12:38.393Z,32.75
2019-06-08T14:15:11.104Z,31.91
2019-06-08T14:17:43.671Z,31.22
2019-06-08T14:20:22.996Z,30.78
2019-06-08T14:22:55.599Z,30.31
2019-06-08T14:25:46.588Z,30.28
2019-06-08T14:28:06.856Z,30.04
2019-06-08T14:30:39.232Z,30.52
2019-06-08T14:33:11.420Z,30.78
2019-06-08T14:35:43.569Z,30.72
2019-06-08T14:38:19.303Z,30.66
2019-06-08T14:40:49.631Z,30.51
2019-06-08T14:43:23.117Z,31.14
2019-06-08T14:45:57.837Z,30.88
2019-06-08T14:48:33.572Z,31.16
2019-06-08T14:51:03.944Z,30.85
2019-06-08T14:53:38.563Z,30.18
2019-06-08T14:56:10.455Z,29.78
2019-06-08T14:58:43.643Z,29.91
2019-06-08T15:01:20.018Z,29.97
2019-06-08T15:03:53.036Z,29.86
2019-06-08T15:06:31.058Z,29.96
2019-06-08T15:08:59.315Z,29.82
2019-06-08T15:11:34.882Z,30.18
2019-06-08T15:14:05.583Z,30.30
2019-06-08T15:16:38.626Z,30.17
2019-06-08T15:19:12.090Z,29.98
2019-06-08T15:21:45.061Z,30.13
2019-06-08T15:24:18.663Z,30.23
2019-06-08T15:26:50.769Z,30.30
2019-06-08T15:29:24.897Z,29.83
2019-06-08T15:31:58.369Z,29.66
2019-06-08T15:34:33.213Z,29.81
2019-06-08T15:37:05.715Z,29.57
2019-06-08T15:39:38.892Z,29.40
2019-06-08T15:42:11.309Z,29.11
2019-06-08T15:44:43.990Z,29.22
2019-06-08T15:47:17.878Z,29.14
2019-06-08T15:49:50.461Z,28.94
2019-06-08T15:52:24.437Z,28.84
2019-06-08T15:55:01.371Z,28.63
2019-06-08T15:57:37.992Z,28.42
2019-06-08T16:00:12.096Z,28.42
2019-06-08T16:02:45.516Z,28.30
2019-06-08T16:05:18.161Z,28.05
2019-06-08T16:07:51.450Z,28.05
2019-06-08T16:10:23.974Z,28.01
2019-06-08T16:12:56.303Z,27.88
2019-06-08T16:15:28.852Z,27.88
2019-06-08T16:18:01.457Z,27.76
2019-06-08T16:20:33.680Z,27.82
2019-06-08T16:23:06.609Z,27.75
2019-06-08T16:25:39.120Z,27.96
2019-06-08T16:28:11.279Z,27.70
2019-06-08T16:30:44.040Z,27.58
2019-06-08T16:33:18.392Z,27.55
2019-06-08T16:35:50.618Z,27.49
2019-06-08T16:38:24.123Z,27.47
2019-06-08T16:40:58.767Z,27.38
2019-06-08T16:43:31.105Z,27.35
2019-06-08T16:46:03.533Z,27.36
2019-06-08T16:48:36.315Z,27.30
2019-06-08T16:51:08.570Z,27.22
2019-06-08T16:53:42.456Z,27.17
2019-06-08T16:56:14.538Z,27.08
2019-06-08T16:58:46.773Z,26.94
2019-06-08T17:01:20.206Z,27.10
2019-06-08T17:03:52.461Z,27.07
2019-06-08T17:06:24.853Z,27.03
2019-06-08T17:08:56.950Z,27.01
2019-06-08T17:11:29.602Z,26.66
2019-06-08T17:14:02.073Z,26.44
2019-06-08T17:16:36.349Z,26.33
2019-06-08T17:19:09.489Z,26.21
2019-06-08T17:21:41.811Z,26.15
2019-06-08T17:24:14.491Z,26.01
2019-06-08T17:26:47.868Z,25.90
2019-06-08T17:29:20.248Z,25.86
2019-06-08T17:31:52.469Z,25.69
2019-06-08T17:34:24.658Z,25.55
2019-06-08T17:36:57.427Z,25.45
2019-06-08T17:39:30.071Z,25.27
2019-06-08T17:42:02.312Z,25.11
2019-06-08T17:44:34.900Z,24.97
2019-06-08T17:47:08.139Z,24.91
2019-06-08T17:49:40.752Z,24.77
2019-06-08T17:52:13.200Z,24.86
2019-06-08T17:54:45.515Z,24.92
2019-06-08T17:57:18.789Z,24.68
2019-06-08T17:59:50.960Z,24.56
2019-06-08T18:02:28.196Z,24.41
2019-06-08T18:04:58.045Z,24.24
2019-06-08T18:07:30.802Z,24.22
2019-06-08T18:10:07.217Z,24.32
2019-06-08T18:12:42.857Z,24.38
2019-06-08T18:15:17.061Z,24.29
2019-06-08T18:17:49.136Z,24.27
2019-06-08T18:20:22.571Z,24.24
2019-06-08T18:22:57.809Z,24.14
2019-06-08T18:25:29.496Z,24.04
2019-06-08T18:28:10.159Z,23.90
2019-06-08T18:30:40.432Z,23.81
2019-06-08T18:33:11.555Z,23.74
2019-06-08T18:35:46.084Z,23.63
2019-06-08T18:38:18.969Z,23.57
2019-06-08T18:40:51.638Z,23.47
2019-06-08T18:43:25.055Z,23.33
2019-06-08T18:45:57.755Z,23.27
2019-06-08T18:48:30.220Z,23.22
2019-06-08T18:51:04.287Z,23.27
2019-06-08T18:53:54.111Z,23.78
2019-06-08T18:56:10.135Z,23.49
2019-06-08T18:58:42.263Z,23.30
2019-06-08T19:01:17.915Z,23.16
2019-06-08T19:03:52.465Z,23.05
2019-06-08T19:06:24.623Z,22.98
2019-06-08T19:08:58.559Z,22.91
2019-06-08T19:11:30.514Z,22.91
2019-06-08T19:14:05.215Z,22.84
2019-06-08T19:16:43.594Z,22.87
2019-06-08T19:19:13.650Z,22.79
2019-06-08T19:21:50.166Z,22.75
2019-06-08T19:24:22.361Z,22.77
2019-06-08T19:26:54.447Z,22.77
2019-06-08T19:29:28.110Z,22.72
2019-06-08T19:32:00.957Z,22.65
2019-06-08T19:34:33.656Z,22.63
2019-06-08T19:37:10.912Z,22.69
2019-06-08T19:39:45.868Z,22.62
2019-06-08T19:42:17.524Z,22.58
2019-06-08T19:44:59.267Z,22.37
2019-06-08T19:47:27.794Z,22.20
2019-06-08T19:50:00.735Z,22.08
2019-06-08T19:52:34.877Z,21.94
2019-06-08T19:55:08.499Z,21.79
2019-06-08T19:57:41.359Z,21.70
2019-06-08T20:00:14.876Z,21.56
2019-06-08T20:02:53.208Z,21.51
2019-06-08T20:05:31.220Z,21.47
2019-06-08T20:08:03.808Z,21.37
2019-06-08T20:10:36.238Z,21.28
2019-06-08T20:13:08.950Z,21.27
2019-06-08T20:15:47.306Z,21.21
2019-06-08T20:18:17.221Z,21.29
2019-06-08T20:20:52.717Z,21.37
2019-06-08T20:23:30.836Z,21.38
2019-06-08T20:26:09.651Z,21.36
2019-06-08T20:28:43.444Z,21.40
2019-06-08T20:31:18.009Z,21.41
2019-06-08T20:33:52.160Z,21.30
2019-06-08T20:36:25.249Z,21.24
2019-06-08T20:38:58.681Z,21.20
2019-06-08T20:41:32.128Z,21.10
2019-06-08T20:44:04.246Z,21.12
2019-06-08T20:46:38.313Z,21.07
2019-06-08T20:49:18.299Z,20.97
2019-06-08T20:51:57.083Z,21.00
2019-06-08T20:54:32.542Z,20.97
2019-06-08T20:57:08.992Z,20.97
2019-06-08T20:59:41.531Z,20.96
2019-06-08T21:02:17.822Z,20.97
2019-06-08T21:04:54.072Z,20.90
2019-06-08T21:07:28.108Z,20.93
2019-06-08T21:10:01.016Z,20.83
2019-06-08T21:12:33.316Z,20.77
2019-06-08T21:15:07.201Z,20.79
2019-06-08T21:17:40.150Z,20.77
2019-06-08T21:20:12.446Z,20.72
2019-06-08T21:22:44.970Z,20.70
2019-06-08T21:25:18.379Z,20.69
2019-06-08T21:27:51.450Z,21.37
2019-06-08T21:30:24.981Z,21.56
2019-06-08T21:33:00.675Z,22.18
2019-06-08T21:35:31.185Z,21.77
2019-06-08T21:38:19.127Z,21.39
2019-06-08T21:40:38.070Z,21.21
2019-06-08T21:43:10.227Z,21.04
2019-06-08T21:45:42.352Z,21.03
2019-06-08T21:48:14.748Z,20.99
2019-06-08T21:50:48.974Z,20.96
2019-06-08T21:53:28.191Z,20.93
2019-06-08T21:55:56.246Z,20.96
2019-06-08T21:58:29.807Z,20.95
2019-06-08T22:01:07.201Z,20.95
2019-06-08T22:03:38.753Z,21.00
2019-06-08T22:06:11.111Z,21.04
2019-06-08T22:08:44.153Z,21.05
2019-06-08T22:11:18.126Z,20.98
2019-06-08T22:13:52.655Z,20.79
2019-06-08T22:16:27.296Z,20.77
2019-06-08T22:19:00.962Z,20.70
2019-06-08T22:21:33.362Z,20.54
2019-06-08T22:24:07.908Z,20.34
2019-06-08T22:26:38.954Z,20.07
2019-06-08T22:29:13.588Z,19.86
2019-06-08T22:31:47.439Z,19.73
2019-06-08T22:34:19.678Z,19.73
2019-06-08T22:36:53.084Z,19.62
2019-06-08T22:39:28.173Z,19.67
2019-06-08T22:42:03.853Z,19.73
2019-06-08T22:44:37.507Z,19.84
2019-06-08T22:47:10.004Z,19.88
2019-06-08T22:49:42.558Z,19.96
2019-06-08T22:52:14.904Z,20.03
2019-06-08T22:54:47.710Z,20.10
2019-06-08T22:57:20.030Z,19.77
2019-06-08T22:59:54.253Z,19.45
2019-06-08T23:02:27.839Z,19.41
2019-06-08T23:05:02.593Z,19.53
2019-06-08T23:07:37.243Z,19.52
2019-06-08T23:10:10.496Z,19.66
2019-06-08T23:12:42.772Z,19.47
2019-06-08T23:15:15.250Z,19.51
2019-06-08T23:17:48.128Z,19.68
2019-06-08T23:20:20.599Z,19.66
2019-06-08T23:22:52.997Z,19.65
2019-06-08T23:25:27.947Z,19.64
2019-06-08T23:28:03.174Z,19.58
2019-06-08T23:30:35.224Z,19.47
2019-06-08T23:33:11.496Z,19.39
2019-06-08T23:36:20.722Z,19.40
2019-06-08T23:38:17.569Z,19.44
2019-06-08T23:40:50.601Z,19.32
2019-06-08T23:43:22.798Z,19.28
2019-06-08T23:45:55.071Z,19.19
2019-06-08T23:48:27.889Z,19.26
2019-06-08T23:51:00.535Z,19.37
2019-06-08T23:53:32.920Z,19.34
2019-06-08T23:56:08.448Z,19.36
2019-06-08T23:58:40.285Z,19.42
